Observation data for Graham on 05/23/2019      Previous  Date  Next       Current Mesonet Observations  Soil Data  Daily Summary Page  Observations in Plain Language
KGHS 230500Z 14012KT 23/18 A2982 RMK A01 T02280182  RH  079%=      5-min Rain = 0
KGHS 230505Z 14012KT 23/18 A2982 RMK A01 T02280183  RH  080%=      5-min Rain = 0
KGHS 230510Z 14014G19KT 23/18 A2982 RMK A01 T02290184  RH  080%=      5-min Rain = 0
KGHS 230515Z 14014KT 23/19 A2982 RMK A01 T02300185  RH  080%=      5-min Rain = 0
KGHS 230520Z 14013G18KT 23/19 A2981 RMK A01 T02300186  RH  080%=      5-min Rain = 0
KGHS 230525Z 14014KT 23/19 A2981 RMK A01 T02290186  RH  081%=      5-min Rain = 0
KGHS 230530Z 14014KT 23/19 A2981 RMK A01 T02290186  RH  081%=      5-min Rain = 0
KGHS 230535Z 14014KT 23/19 A2981 RMK A01 T02290186  RH  081%=      5-min Rain = 0
KGHS 230540Z 14014KT 23/19 A2981 RMK A01 T02280186  RH  082%=      5-min Rain = 0
KGHS 230545Z 14013G18KT 23/19 A2982 RMK A01 T02280186  RH  082%=      5-min Rain = 0
KGHS 230550Z 14013KT 23/19 A2982 RMK A01 T02270187  RH  082%=      5-min Rain = 0
KGHS 230555Z 14012KT 23/19 A2982 RMK A01 T02270186  RH  082%=      5-min Rain = 0
KGHS 230600Z 13012KT 23/19 A2982 RMK A01 T02260187  RH  083%=      5-min Rain = 0
KGHS 230605Z 13011G16KT 23/19 A2982 RMK A01 T02260187  RH  083%=      5-min Rain = 0
KGHS 230610Z 13012KT 23/19 A2981 RMK A01 T02250187  RH  083%=      5-min Rain = 0
KGHS 230615Z 13012KT 23/19 A2981 RMK A01 T02250187  RH  083%=      5-min Rain = 0
KGHS 230620Z 13013G18KT 23/19 A2981 RMK A01 T02250187  RH  083%=      5-min Rain = 0
KGHS 230625Z 13013G19KT 23/19 A2981 RMK A01 T02260187  RH  083%=      5-min Rain = 0
KGHS 230630Z 13014KT 23/19 A2981 RMK A01 T02260187  RH  083%=      5-min Rain = 0
KGHS 230635Z 13014KT 23/19 A2981 RMK A01 T02260187  RH  083%=      5-min Rain = 0
KGHS 230640Z 13014KT 23/19 A2981 RMK A01 T02260188  RH  083%=      5-min Rain = 0
KGHS 230645Z 13014KT 23/19 A2981 RMK A01 T02260188  RH  084%=      5-min Rain = 0
KGHS 230650Z 13014G19KT 23/19 A2981 RMK A01 T02250188  RH  084%=      5-min Rain = 0
KGHS 230655Z 13015KT 23/19 A2981 RMK A01 T02260189  RH  084%=      5-min Rain = 0
KGHS 230700Z 13015G20KT 23/19 A2981 RMK A01 T02260189  RH  085%=      5-min Rain = 0
KGHS 230705Z 13015KT 23/19 A2981 RMK A01 T02250190  RH  085%=      5-min Rain = 0
KGHS 230710Z 14014KT 23/19 A2981 RMK A01 T02250190  RH  085%=      5-min Rain = 0
KGHS 230715Z 13013KT 23/19 A2981 RMK A01 T02250191  RH  086%=      5-min Rain = 0
KGHS 230720Z 13014KT 22/19 A2981 RMK A01 T02240191  RH  086%=      5-min Rain = 0
KGHS 230725Z 13016G21KT 22/19 A2981 RMK A01 T02240192  RH  086%=      5-min Rain = 0
KGHS 230730Z 13015G22KT 22/19 A2981 RMK A01 T02240192  RH  087%=      5-min Rain = 0
KGHS 230735Z 14015G20KT 22/19 A2981 RMK A01 T02240192  RH  087%=      5-min Rain = 0
KGHS 230740Z 14015KT 23/19 A2981 RMK A01 T02250193  RH  087%=      5-min Rain = 0
KGHS 230745Z 14015G22KT 23/19 A2981 RMK A01 T02250193  RH  087%=      5-min Rain = 0
KGHS 230750Z 14014G19KT 23/19 A2981 RMK A01 T02250194  RH  087%=      5-min Rain = 0
KGHS 230755Z 15014G20KT 23/19 A2981 RMK A01 T02260194  RH  087%=      5-min Rain = 0
KGHS 230800Z 15015G22KT 23/20 A2981 RMK A01 T02260195  RH  087%=      5-min Rain = 0
KGHS 230805Z 14015KT 23/20 A2981 RMK A01 T02260195  RH  087%=      5-min Rain = 0
KGHS 230810Z 15017G24KT 23/20 A2981 RMK A01 T02260195  RH  087%=      5-min Rain = 0
KGHS 230815Z 15014G20KT 23/20 A2981 RMK A01 T02260195  RH  087%=      5-min Rain = 0
KGHS 230820Z 15016G21KT 23/20 A2981 RMK A01 T02260195  RH  087%=      5-min Rain = 0
KGHS 230825Z 14013G18KT 23/20 A2981 RMK A01 T02260195  RH  088%=      5-min Rain = 0
KGHS 230830Z 14014KT 23/20 A2981 RMK A01 T02260196  RH  088%=      5-min Rain = 0
KGHS 230835Z 15014G19KT 23/20 A2981 RMK A01 T02250195  RH  088%=      5-min Rain = 0
KGHS 230840Z 15014G20KT 23/20 A2981 RMK A01 T02250196  RH  088%=      5-min Rain = 0
KGHS 230845Z 14013G18KT 23/20 A2981 RMK A01 T02250196  RH  088%=      5-min Rain = 0
KGHS 230850Z 15012KT 22/20 A2981 RMK A01 T02240196  RH  089%=      5-min Rain = 0
KGHS 230855Z 14012KT 22/20 A2981 RMK A01 T02240196  RH  089%=      5-min Rain = 0
KGHS 230900Z 14011KT 22/20 A2981 RMK A01 T02240196  RH  089%=      5-min Rain = 0
KGHS 230905Z 14009KT 22/20 A2981 RMK A01 T02240196  RH  089%=      5-min Rain = 0
KGHS 230910Z 15010KT 22/20 A2981 RMK A01 T02240196  RH  089%=      5-min Rain = 0
KGHS 230915Z 14011G17KT 22/20 A2981 RMK A01 T02240196  RH  089%=      5-min Rain = 0
KGHS 230920Z 14011G17KT 22/20 A2981 RMK A01 T02240197  RH  089%=      5-min Rain = 0
KGHS 230925Z 15012KT 23/20 A2981 RMK A01 T02250197  RH  089%=      5-min Rain = 0
KGHS 230930Z 15012G17KT 23/20 A2981 RMK A01 T02250197  RH  089%=      5-min Rain = 0
KGHS 230935Z 15012KT 23/20 A2982 RMK A01 T02250197  RH  089%=      5-min Rain = 0
KGHS 230940Z 16011KT 23/20 A2982 RMK A01 T02260197  RH  089%=      5-min Rain = 0
KGHS 230945Z 15010KT 23/20 A2982 RMK A01 T02260197  RH  089%=      5-min Rain = 0
KGHS 230950Z 16012KT 23/20 A2982 RMK A01 T02260197  RH  089%=      5-min Rain = 0
KGHS 230955Z 16012G17KT 23/20 A2982 RMK A01 T02260197  RH  089%=      5-min Rain = 0
KGHS 231000Z 16012KT 23/20 A2982 RMK A01 T02260197  RH  089%=      5-min Rain = 0
KGHS 231005Z 16011KT 23/20 A2982 RMK A01 T02260197  RH  089%=      5-min Rain = 0
KGHS 231010Z 16010KT 23/20 A2983 RMK A01 T02250197  RH  089%=      5-min Rain = 0
KGHS 231015Z 16010KT 23/20 A2983 RMK A01 T02250196  RH  089%=      5-min Rain = 0
KGHS 231020Z 16010G15KT 23/20 A2983 RMK A01 T02250196  RH  089%=      5-min Rain = 0
KGHS 231025Z 15011G16KT 23/20 A2983 RMK A01 T02250196  RH  088%=      5-min Rain = 0
KGHS 231030Z 16010G15KT 23/20 A2983 RMK A01 T02260196  RH  088%=      5-min Rain = 0
KGHS 231035Z 17009KT 23/20 A2984 RMK A01 T02260196  RH  088%=      5-min Rain = 0
KGHS 231040Z 19009KT 23/20 A2985 RMK A01 T02260196  RH  088%=      5-min Rain = 0
KGHS 231045Z 19008KT 23/20 A2986 RMK A01 T02270196  RH  087%=      5-min Rain = 0
KGHS 231050Z 20008KT 23/20 A2986 RMK A01 T02270196  RH  087%=      5-min Rain = 0
KGHS 231055Z 19009KT 23/20 A2987 RMK A01 T02270196  RH  087%=      5-min Rain = 0
KGHS 231100Z 18010G16KT 23/20 A2987 RMK A01 T02270196  RH  087%=      5-min Rain = 0
KGHS 231105Z 18010KT 23/20 A2986 RMK A01 T02280195  RH  087%=      5-min Rain = 0
KGHS 231110Z 17010KT 23/20 A2986 RMK A01 T02280195  RH  087%=      5-min Rain = 0
KGHS 231115Z 17012G17KT 23/20 A2986 RMK A01 T02270195  RH  087%=      5-min Rain = 0
KGHS 231120Z 16012KT 23/19 A2985 RMK A01 T02280194  RH  086%=      5-min Rain = 0
KGHS 231125Z 15012KT 23/20 A2985 RMK A01 T02280195  RH  086%=      5-min Rain = 0
KGHS 231130Z 15011KT 23/20 A2985 RMK A01 T02270195  RH  087%=      5-min Rain = 0
KGHS 231135Z 15011KT 23/20 A2985 RMK A01 T02270195  RH  087%=      5-min Rain = 0
KGHS 231140Z 15010KT 23/20 A2985 RMK A01 T02260195  RH  087%=      5-min Rain = 0
KGHS 231145Z 14009KT 23/20 A2985 RMK A01 T02250195  RH  088%=      5-min Rain = 0
KGHS 231150Z 14010KT 22/20 A2985 RMK A01 T02240195  RH  089%=      5-min Rain = 0
KGHS 231155Z 14008KT 22/20 A2985 RMK A01 T02240195  RH  089%=      5-min Rain = 0
KGHS 231200Z 13008KT 22/20 A2986 RMK A01 T02230196  RH  089%=      5-min Rain = 0
KGHS 231205Z 14010KT 22/20 A2986 RMK A01 T02230196  RH  090%=      5-min Rain = 0
KGHS 231210Z 14010KT 22/20 A2986 RMK A01 T02230196  RH  090%=      5-min Rain = 0
KGHS 231215Z 14009KT 22/20 A2986 RMK A01 T02230196  RH  090%=      5-min Rain = 0
KGHS 231220Z 13009KT 22/20 A2986 RMK A01 T02220196  RH  090%=      5-min Rain = 0
KGHS 231225Z 14009KT 22/20 A2986 RMK A01 T02220196  RH  090%=      5-min Rain = 0
KGHS 231230Z 13010KT 22/20 A2986 RMK A01 T02220196  RH  090%=      5-min Rain = 0
KGHS 231235Z 13009KT 22/20 A2987 RMK A01 T02220196  RH  090%=      5-min Rain = 0
KGHS 231240Z 13009KT 22/20 A2987 RMK A01 T02220196  RH  090%=      5-min Rain = 0
KGHS 231245Z 13009KT 22/20 A2987 RMK A01 T02210196  RH  090%=      5-min Rain = 0
KGHS 231250Z 13010KT 22/20 A2987 RMK A01 T02210196  RH  090%=      5-min Rain = 0
KGHS 231255Z 14010KT 22/20 A2987 RMK A01 T02210196  RH  090%=      5-min Rain = 0
KGHS 231300Z 13009KT 22/20 A2987 RMK A01 T02220196  RH  090%=      5-min Rain = 0
KGHS 231305Z 13010KT 22/20 A2987 RMK A01 T02220196  RH  090%=      5-min Rain = 0
KGHS 231310Z 13010KT 22/20 A2987 RMK A01 T02220196  RH  091%=      5-min Rain = 0
KGHS 231315Z 13010KT 22/20 A2987 RMK A01 T02220196  RH  090%=      5-min Rain = 0
KGHS 231320Z 13010KT 22/20 A2987 RMK A01 T02220197  RH  090%=      5-min Rain = 0
KGHS 231325Z 13012KT 22/20 A2987 RMK A01 T02230196  RH  090%=      5-min Rain = 0
KGHS 231330Z 13010KT 22/20 A2987 RMK A01 T02230197  RH  090%=      5-min Rain = 0
KGHS 231335Z 13012KT 22/20 A2987 RMK A01 T02240197  RH  090%=      5-min Rain = 0
KGHS 231340Z 13012KT 22/20 A2987 RMK A01 T02240197  RH  090%=      5-min Rain = 0
KGHS 231345Z 13012KT 22/20 A2987 RMK A01 T02240197  RH  090%=      5-min Rain = 0
KGHS 231350Z 14011KT 22/20 A2987 RMK A01 T02240197  RH  090%=      5-min Rain = 0
KGHS 231355Z 13010KT 22/20 A2987 RMK A01 T02240198  RH  090%=      5-min Rain = 0
KGHS 231400Z 14010KT 22/20 A2987 RMK A01 T02240198  RH  090%=      5-min Rain = 0
KGHS 231405Z 14010G15KT 23/20 A2987 RMK A01 T02250198  RH  090%=      5-min Rain = 0
KGHS 231410Z 15010KT 23/20 A2987 RMK A01 T02250198  RH  090%=      5-min Rain = 0
KGHS 231415Z 14011KT 23/20 A2988 RMK A01 T02250198  RH  090%=      5-min Rain = 0
KGHS 231420Z 14011KT 22/20 A2988 RMK A01 T02240198  RH  090%=      5-min Rain = 0
KGHS 231425Z 14011KT 22/20 A2988 RMK A01 T02240198  RH  090%=      5-min Rain = 0
KGHS 231430Z 14010KT 22/20 A2988 RMK A01 T02240198  RH  090%=      5-min Rain = 0
KGHS 231435Z 14011KT 23/20 A2988 RMK A01 T02250198  RH  090%=      5-min Rain = 0
KGHS 231440Z 14011KT 23/20 A2988 RMK A01 T02250198  RH  090%=      5-min Rain = 0
KGHS 231445Z 14011KT 23/20 A2988 RMK A01 T02250199  RH  090%=      5-min Rain = 0
KGHS 231450Z 15012G17KT 23/20 A2988 RMK A01 T02260199  RH  090%=      5-min Rain = 0
KGHS 231455Z 15013KT 23/20 A2988 RMK A01 T02260198  RH  090%=      5-min Rain = 0
KGHS 231500Z 15013KT 23/20 A2988 RMK A01 T02260198  RH  089%=      5-min Rain = 0
KGHS 231505Z 15014G20KT 23/20 A2988 RMK A01 T02270198  RH  089%=      5-min Rain = 0
KGHS 231510Z 15013KT 23/20 A2988 RMK A01 T02280198  RH  088%=      5-min Rain = 0
KGHS 231515Z 15014G21KT 23/20 A2988 RMK A01 T02280197  RH  088%=      5-min Rain = 0
KGHS 231520Z 15013G18KT 23/20 A2989 RMK A01 T02280198  RH  088%=      5-min Rain = 0
KGHS 231525Z 15014KT 23/20 A2988 RMK A01 T02290197  RH  087%=      5-min Rain = 0
KGHS 231530Z 15014KT 23/20 A2988 RMK A01 T02280197  RH  088%=      5-min Rain = 0
KGHS 231535Z 15014KT 23/20 A2989 RMK A01 T02280198  RH  088%=      5-min Rain = 0
KGHS 231540Z 15013KT 23/20 A2989 RMK A01 T02290199  RH  088%=      5-min Rain = 0
KGHS 231545Z 14011KT 23/20 A2989 RMK A01 T02310200  RH  088%=      5-min Rain = 0
KGHS 231550Z 15013KT 23/20 A2989 RMK A01 T02310199  RH  087%=      5-min Rain = 0
KGHS 231555Z 15012KT 23/20 A2989 RMK A01 T02320200  RH  087%=      5-min Rain = 0
KGHS 231600Z 14014G19KT 23/20 A2989 RMK A01 T02310199  RH  087%=      5-min Rain = 0
KGHS 231605Z 14014G19KT 23/20 A2988 RMK A01 T02320200  RH  087%=      5-min Rain = 0
KGHS 231610Z 14015G22KT 24/20 A2988 RMK A01 T02360201  RH  086%=      5-min Rain = 0
KGHS 231615Z 15018G25KT 24/20 A2988 RMK A01 T02410202  RH  084%=      5-min Rain = 0
KGHS 231620Z 16016KT 24/20 A2988 RMK A01 T02440202  RH  082%=      5-min Rain = 0
KGHS 231625Z 15019G25KT 25/20 A2988 RMK A01 T02470202  RH  081%=      5-min Rain = 0
KGHS 231630Z 16020G28KT 25/20 A2988 RMK A01 T02490200  RH  079%=      5-min Rain = 0
KGHS 231635Z 16018G23KT 25/20 A2988 RMK A01 T02500200  RH  078%=      5-min Rain = 0
KGHS 231640Z 17021G28KT 25/20 A2988 RMK A01 T02510200  RH  078%=      5-min Rain = 0
KGHS 231645Z 16024G31KT 25/20 A2988 RMK A01 T02490198  RH  078%=      5-min Rain = 0
KGHS 231650Z 16023G30KT 25/20 A2988 RMK A01 T02490198  RH  077%=      5-min Rain = 0
KGHS 231655Z 17023G33KT 25/20 A2988 RMK A01 T02520197  RH  076%=      5-min Rain = 0
KGHS 231700Z 17023G31KT 25/20 A2988 RMK A01 T02500196  RH  076%=      5-min Rain = 0
KGHS 231705Z 17022G30KT 25/20 A2988 RMK A01 T02520196  RH  075%=      5-min Rain = 0
KGHS 231710Z 17023G30KT 25/20 A2989 RMK A01 T02520196  RH  075%=      5-min Rain = 0
KGHS 231715Z 16019G29KT 25/20 A2989 RMK A01 T02540197  RH  075%=      5-min Rain = 0
KGHS 231720Z 17022G29KT 25/19 A2989 RMK A01 T02520194  RH  074%=      5-min Rain = 0
KGHS 231725Z 17022G30KT 25/20 A2989 RMK A01 T02520195  RH  075%=      5-min Rain = 0
KGHS 231730Z 17019KT 25/20 A2989 RMK A01 T02540196  RH  074%=      5-min Rain = 0
KGHS 231735Z 17021G26KT 26/20 A2989 RMK A01 T02560195  RH  073%=      5-min Rain = 0
KGHS 231740Z 18023G28KT 25/19 A2988 RMK A01 T02520193  RH  074%=      5-min Rain = 0
KGHS 231745Z 17022G29KT 25/19 A2988 RMK A01 T02540192  RH  073%=      5-min Rain = 0
KGHS 231750Z 17024G32KT 26/19 A2988 RMK A01 T02550192  RH  072%=      5-min Rain = 0
KGHS 231755Z 17021G31KT 26/19 A2988 RMK A01 T02570193  RH  072%=      5-min Rain = 0
KGHS 231800Z 16024G30KT 26/19 A2988 RMK A01 T02590192  RH  070%=      5-min Rain = 0
KGHS 231805Z 16020G26KT 26/19 A2988 RMK A01 T02580193  RH  071%=      5-min Rain = 0
KGHS 231810Z 16020G27KT 26/19 A2988 RMK A01 T02580193  RH  071%=      5-min Rain = 0
KGHS 231815Z 16023G33KT 26/19 A2988 RMK A01 T02590191  RH  070%=      5-min Rain = 0
KGHS 231820Z 17020G27KT 26/19 A2988 RMK A01 T02600191  RH  070%=      5-min Rain = 0
KGHS 231825Z 16022G27KT 26/19 A2988 RMK A01 T02610192  RH  069%=      5-min Rain = 0
KGHS 231830Z 16020G27KT 26/19 A2987 RMK A01 T02630192  RH  069%=      5-min Rain = 0
KGHS 231835Z 16022G29KT 26/19 A2987 RMK A01 T02640191  RH  068%=      5-min Rain = 0
KGHS 231840Z 17020G31KT 27/19 A2987 RMK A01 T02650190  RH  067%=      5-min Rain = 0
KGHS 231845Z 16019G30KT 27/19 A2987 RMK A01 T02650192  RH  068%=      5-min Rain = 0
KGHS 231850Z 16017G24KT 27/19 A2987 RMK A01 T02670193  RH  068%=      5-min Rain = 0
KGHS 231855Z 15021G26KT 27/19 A2987 RMK A01 T02710190  RH  065%=      5-min Rain = 0
KGHS 231900Z 17021G29KT 27/19 A2987 RMK A01 T02720189  RH  064%=      5-min Rain = 0
KGHS 231905Z 16018G24KT 27/19 A2987 RMK A01 T02740192  RH  064%=      5-min Rain = 0
KGHS 231910Z 15020G29KT 27/19 A2987 RMK A01 T02730193  RH  065%=      5-min Rain = 0
KGHS 231915Z 16024G29KT 27/19 A2986 RMK A01 T02730190  RH  064%=      5-min Rain = 0
KGHS 231920Z 17022G29KT 27/19 A2986 RMK A01 T02740190  RH  064%=      5-min Rain = 0
KGHS 231925Z 17019G25KT 28/19 A2986 RMK A01 T02750191  RH  064%=      5-min Rain = 0
KGHS 231930Z 15017G25KT 28/19 A2986 RMK A01 T02780194  RH  064%=      5-min Rain = 0
KGHS 231935Z 15019G25KT 28/19 A2986 RMK A01 T02780193  RH  063%=      5-min Rain = 0
KGHS 231940Z 15020G27KT 28/19 A2986 RMK A01 T02750191  RH  063%=      5-min Rain = 0
KGHS 231945Z 16021G27KT 28/19 A2986 RMK A01 T02760192  RH  064%=      5-min Rain = 0
KGHS 231950Z 15021G26KT 28/19 A2986 RMK A01 T02780191  RH  062%=      5-min Rain = 0
KGHS 231955Z 15020G28KT 28/19 A2986 RMK A01 T02810190  RH  061%=      5-min Rain = 0
KGHS 232000Z 16020G26KT 28/19 A2986 RMK A01 T02820189  RH  060%=      5-min Rain = 0
KGHS 232005Z 16022G32KT 28/19 A2985 RMK A01 T02800188  RH  061%=      5-min Rain = 0
KGHS 232010Z 16019G25KT 28/19 A2986 RMK A01 T02790191  RH  062%=      5-min Rain = 0
KGHS 232015Z 16019G25KT 28/19 A2985 RMK A01 T02820191  RH  061%=      5-min Rain = 0
KGHS 232020Z 17021G33KT 28/19 A2985 RMK A01 T02840188  RH  059%=      5-min Rain = 0
KGHS 232025Z 16020G27KT 28/19 A2985 RMK A01 T02810189  RH  061%=      5-min Rain = 0
KGHS 232030Z 16020G26KT 28/19 A2985 RMK A01 T02810189  RH  061%=      5-min Rain = 0
KGHS 232035Z 16021G27KT 28/19 A2985 RMK A01 T02840185  RH  058%=      5-min Rain = 0
KGHS 232040Z 16019G26KT 28/19 A2985 RMK A01 T02830187  RH  059%=      5-min Rain = 0
KGHS 232045Z 15019G26KT 29/19 A2985 RMK A01 T02860188  RH  058%=      5-min Rain = 0
KGHS 232050Z 16020G28KT 28/19 A2985 RMK A01 T02820189  RH  060%=      5-min Rain = 0
KGHS 232055Z 15021G30KT 28/19 A2984 RMK A01 T02820189  RH  060%=      5-min Rain = 0
KGHS 232100Z 16021G28KT 28/19 A2984 RMK A01 T02800187  RH  060%=      5-min Rain = 0
KGHS 232105Z 15021G31KT 28/19 A2984 RMK A01 T02830186  RH  059%=      5-min Rain = 0
KGHS 232110Z 16019G25KT 29/19 A2984 RMK A01 T02880189  RH  058%=      5-min Rain = 0
KGHS 232115Z 16019G26KT 29/19 A2984 RMK A01 T02900192  RH  059%=      5-min Rain = 0
KGHS 232120Z 16021G29KT 29/19 A2984 RMK A01 T02870187  RH  058%=      5-min Rain = 0
KGHS 232125Z 16019G27KT 28/19 A2984 RMK A01 T02830187  RH  059%=      5-min Rain = 0
KGHS 232130Z 14019G28KT 28/19 A2984 RMK A01 T02840191  RH  060%=      5-min Rain = 0
KGHS 232135Z 16022G29KT 28/19 A2983 RMK A01 T02840187  RH  059%=      5-min Rain = 0
KGHS 232140Z 16020G26KT 28/19 A2983 RMK A01 T02830187  RH  059%=      5-min Rain = 0
KGHS 232145Z 15019G28KT 29/19 A2983 RMK A01 T02880188  RH  058%=      5-min Rain = 0
KGHS 232150Z 15019G25KT 29/19 A2983 RMK A01 T02880190  RH  059%=      5-min Rain = 0
KGHS 232155Z 15020G25KT 29/19 A2983 RMK A01 T02890192  RH  059%=      5-min Rain = 0
KGHS 232200Z 14022G29KT 29/19 A2982 RMK A01 T02890192  RH  059%=      5-min Rain = 0
KGHS 232205Z 14020G30KT 29/19 A2982 RMK A01 T02860193  RH  061%=      5-min Rain = 0
KGHS 232210Z 15021G28KT 28/19 A2982 RMK A01 T02840193  RH  061%=      5-min Rain = 0
KGHS 232215Z 15023G29KT 28/19 A2982 RMK A01 T02810191  RH  062%=      5-min Rain = 0
KGHS 232220Z 15020G26KT 28/19 A2982 RMK A01 T02790190  RH  061%=      5-min Rain = 0
KGHS 232225Z 15020G28KT 28/19 A2982 RMK A01 T02810189  RH  061%=      5-min Rain = 0
KGHS 232230Z 15023G30KT 28/19 A2982 RMK A01 T02840189  RH  059%=      5-min Rain = 0
KGHS 232235Z 14020G27KT 29/19 A2982 RMK A01 T02870188  RH  058%=      5-min Rain = 0
KGHS 232240Z 16018G23KT 29/19 A2982 RMK A01 T02870187  RH  058%=      5-min Rain = 0
KGHS 232245Z 16019G26KT 29/19 A2982 RMK A01 T02850186  RH  058%=      5-min Rain = 0
KGHS 232250Z 15019G27KT 28/19 A2982 RMK A01 T02830187  RH  059%=      5-min Rain = 0
KGHS 232255Z 14018G29KT 28/19 A2983 RMK A01 T02840187  RH  059%=      5-min Rain = 0
KGHS 232300Z 15017G25KT 28/19 A2983 RMK A01 T02830188  RH  059%=      5-min Rain = 0
KGHS 232305Z 14019G25KT 28/19 A2983 RMK A01 T02840186  RH  058%=      5-min Rain = 0
KGHS 232310Z 14020G29KT 28/18 A2983 RMK A01 T02820184  RH  058%=      5-min Rain = 0
KGHS 232315Z 14017G25KT 28/19 A2983 RMK A01 T02810185  RH  059%=      5-min Rain = 0
KGHS 232320Z 14017G25KT 28/19 A2983 RMK A01 T02780185  RH  060%=      5-min Rain = 0
KGHS 232325Z 14018G24KT 28/19 A2983 RMK A01 T02770185  RH  060%=      5-min Rain = 0
KGHS 232330Z 14018G25KT 28/19 A2983 RMK A01 T02760185  RH  061%=      5-min Rain = 0
KGHS 232335Z 13021G29KT 28/18 A2982 RMK A01 T02760184  RH  060%=      5-min Rain = 0
KGHS 232340Z 13022G28KT 28/19 A2981 RMK A01 T02780185  RH  060%=      5-min Rain = 0
KGHS 232345Z 13025G34KT 28/18 A298 RMK A01 T02770184  RH  060%=      5-min Rain = 0
KGHS 232350Z 14023G32KT 28/18 A2981 RMK A01 T02760183  RH  060%=      5-min Rain = 0
KGHS 232355Z 14024G32KT 27/18 A298 RMK A01 T02740181  RH  060%=      5-min Rain = 0
KGHS 240000Z 14026G32KT 27/18 A298 RMK A01 T02730180  RH  060%=      5-min Rain = 0
KGHS 240005Z 14023G31KT 27/18 A298 RMK A01 T02730181  RH  060%=      5-min Rain = 0
KGHS 240010Z 14022G30KT 27/18 A298 RMK A01 T02740181  RH  060%=      5-min Rain = 0
KGHS 240015Z 15021G29KT 27/18 A298 RMK A01 T02740181  RH  060%=      5-min Rain = 0
KGHS 240020Z 15027G34KT 27/18 A298 RMK A01 T02730179  RH  060%=      5-min Rain = 0
KGHS 240025Z 15025G32KT 27/18 A298 RMK A01 T02720178  RH  060%=      5-min Rain = 0
KGHS 240030Z 14021G31KT 27/18 A298 RMK A01 T02720180  RH  060%=      5-min Rain = 0
KGHS 240035Z 14023G32KT 27/18 A298 RMK A01 T02710180  RH  061%=      5-min Rain = 0
KGHS 240040Z 14021G28KT 27/18 A2981 RMK A01 T02700181  RH  061%=      5-min Rain = 0
KGHS 240045Z 14020G28KT 27/18 A2981 RMK A01 T02700181  RH  062%=      5-min Rain = 0
KGHS 240050Z 14020G30KT 27/18 A2981 RMK A01 T02680181  RH  062%=      5-min Rain = 0
KGHS 240055Z 14020G28KT 27/18 A2981 RMK A01 T02670182  RH  063%=      5-min Rain = 0
KGHS 240100Z 14021G29KT 27/18 A298 RMK A01 T02660182  RH  063%=      5-min Rain = 0
KGHS 240105Z 15022G31KT 26/18 A298 RMK A01 T02640182  RH  064%=      5-min Rain = 0
KGHS 240110Z 15022G30KT 26/18 A298 RMK A01 T02630181  RH  064%=      5-min Rain = 0
KGHS 240115Z 15021G27KT 26/18 A298 RMK A01 T02620181  RH  064%=      5-min Rain = 0
KGHS 240120Z 15023G32KT 26/18 A298 RMK A01 T02610181  RH  065%=      5-min Rain = 0
KGHS 240125Z 15023G29KT 26/18 A298 RMK A01 T02600181  RH  065%=      5-min Rain = 0
KGHS 240130Z 15021G30KT 26/18 A298 RMK A01 T02590181  RH  065%=      5-min Rain = 0
KGHS 240135Z 15022G31KT 26/18 A298 RMK A01 T02590181  RH  066%=      5-min Rain = 0
KGHS 240140Z 15020G26KT 26/18 A2981 RMK A01 T02570181  RH  066%=      5-min Rain = 0
KGHS 240145Z 15018G25KT 26/18 A2981 RMK A01 T02560181  RH  067%=      5-min Rain = 0
KGHS 240150Z 15021G26KT 26/18 A2981 RMK A01 T02560181  RH  067%=      5-min Rain = 0
KGHS 240155Z 15020G26KT 26/18 A2982 RMK A01 T02550181  RH  067%=      5-min Rain = 0
KGHS 240200Z 15020G25KT 26/18 A2982 RMK A01 T02550181  RH  067%=      5-min Rain = 0
KGHS 240205Z 15022G30KT 26/18 A2982 RMK A01 T02550181  RH  067%=      5-min Rain = 0
KGHS 240210Z 15019G27KT 26/18 A2982 RMK A01 T02550181  RH  067%=      5-min Rain = 0
KGHS 240215Z 15019G25KT 25/18 A2983 RMK A01 T02540181  RH  067%=      5-min Rain = 0
KGHS 240220Z 15017G24KT 25/18 A2983 RMK A01 T02540181  RH  067%=      5-min Rain = 0
KGHS 240225Z 15014G19KT 25/18 A2984 RMK A01 T02530181  RH  068%=      5-min Rain = 0
KGHS 240230Z 14013G18KT 25/18 A2985 RMK A01 T02510181  RH  069%=      5-min Rain = 0
KGHS 240235Z 14012KT 25/18 A2985 RMK A01 T02500181  RH  069%=      5-min Rain = 0
KGHS 240240Z 13011KT 25/18 A2985 RMK A01 T02490182  RH  070%=      5-min Rain = 0
KGHS 240245Z 14010G17KT 25/18 A2985 RMK A01 T02480182  RH  071%=      5-min Rain = 0
KGHS 240250Z 13010KT 25/18 A2986 RMK A01 T02470182  RH  071%=      5-min Rain = 0
KGHS 240255Z 13009KT 25/18 A2986 RMK A01 T02460182  RH  071%=      5-min Rain = 0
KGHS 240300Z 12009KT 25/18 A2986 RMK A01 T02460182  RH  072%=      5-min Rain = 0
KGHS 240305Z 12010KT 25/18 A2986 RMK A01 T02450182  RH  072%=      5-min Rain = 0
KGHS 240310Z 12011KT 25/18 A2986 RMK A01 T02450182  RH  072%=      5-min Rain = 0
KGHS 240315Z 12010KT 25/18 A2986 RMK A01 T02450182  RH  072%=      5-min Rain = 0
KGHS 240320Z 12011KT 24/18 A2986 RMK A01 T02440182  RH  072%=      5-min Rain = 0
KGHS 240325Z 12009G14KT 24/18 A2987 RMK A01 T02430182  RH  073%=      5-min Rain = 0
KGHS 240330Z 12008KT 24/18 A2987 RMK A01 T02430182  RH  073%=      5-min Rain = 0
KGHS 240335Z 11008KT 24/18 A2987 RMK A01 T02430182  RH  073%=      5-min Rain = 0
KGHS 240340Z 11008KT 24/18 A2988 RMK A01 T02430182  RH  073%=      5-min Rain = 0
KGHS 240345Z 11008KT 24/18 A2988 RMK A01 T02430182  RH  073%=      5-min Rain = 0
KGHS 240350Z 11008KT 24/18 A2989 RMK A01 T02430182  RH  073%=      5-min Rain = 0
KGHS 240355Z 11008KT 24/18 A2989 RMK A01 T02430182  RH  073%=      5-min Rain = 0
KGHS 240400Z 11009KT 24/18 A2989 RMK A01 T02420182  RH  073%=      5-min Rain = 0
KGHS 240405Z 12009KT 24/18 A2989 RMK A01 T02420182  RH  073%=      5-min Rain = 0
KGHS 240410Z 12009KT 24/18 A2989 RMK A01 T02420182  RH  073%=      5-min Rain = 0
KGHS 240415Z 13008KT 24/18 A2989 RMK A01 T02420182  RH  073%=      5-min Rain = 0
KGHS 240420Z 13009KT 24/18 A2989 RMK A01 T02420182  RH  073%=      5-min Rain = 0
KGHS 240425Z 13008KT 24/18 A299 RMK A01 T02410182  RH  073%=      5-min Rain = 0
KGHS 240430Z 12008KT 24/18 A299 RMK A01 T02410181  RH  073%=      5-min Rain = 0
KGHS 240435Z 13008KT 24/18 A299 RMK A01 T02400181  RH  073%=      5-min Rain = 0
KGHS 240440Z 13008KT 24/18 A299 RMK A01 T02400181  RH  073%=      5-min Rain = 0
KGHS 240445Z 13007KT 24/18 A2991 RMK A01 T02400181  RH  074%=      5-min Rain = 0
KGHS 240450Z 12008G13KT 24/18 A299 RMK A01 T02390181  RH  074%=      5-min Rain = 0
KGHS 240455Z 12009G14KT 24/18 A299 RMK A01 T02390181  RH  074%=      5-min Rain = 0

Page generated in 0.0095 seconds.